7TS0 weather

Public forecast

Using degrees Fahrenheit for public forecast. Weather courtesy of forecast.io.

Closest aviation weather report (METAR) to Fairview Airport

Closest report is Fort Worth Alliance Airport, 8.4 nm (15.6 km) SE. Retrieved 2020/08/14 06:53 UTC (17 minutes ago):

KAFW 140653Z 17013KT 10SM CLR 31/19 A2986 RMK AO2 SLP089 T03060194

Closest aviation forecast (TAF) to Fairview Airport

Closest forecast is Fort Worth Alliance Airport, 8.4 nm (15.6 km) SE. Retrieved 2020/08/14 06:22 UTC (48 minutes ago):

TAF KAFW 140520Z 1406/1506 18011KT P6SM SKC FM141500 22015KT P6SM FEW060 FEW250 FM150100 17010KT P6SM FEW250